sensor_id;sensor_type;location;lat;lon;timestamp;P1;durP1;ratioP1;P2;durP2;ratioP2
15142;SDS011;7672;50.834;6.286;2023-06-22T00:00:14;8.48;;;7.55;;
15142;SDS011;7672;50.834;6.286;2023-06-22T00:02:42;8.52;;;7.72;;
15142;SDS011;7672;50.834;6.286;2023-06-22T00:05:09;8.55;;;7.75;;
15142;SDS011;7672;50.834;6.286;2023-06-22T00:07:36;8.68;;;7.88;;
15142;SDS011;7672;50.834;6.286;2023-06-22T00:10:03;8.60;;;7.63;;
15142;SDS011;7672;50.834;6.286;2023-06-22T00:12:30;9.40;;;7.68;;
15142;SDS011;7672;50.834;6.286;2023-06-22T00:14:58;9.20;;;8.35;;
15142;SDS011;7672;50.834;6.286;2023-06-22T00:17:25;8.32;;;7.63;;
15142;SDS011;7672;50.834;6.286;2023-06-22T00:19:52;8.07;;;7.38;;
15142;SDS011;7672;50.834;6.286;2023-06-22T00:22:21;8.82;;;7.90;;
15142;SDS011;7672;50.834;6.286;2023-06-22T00:24:55;10.75;;;8.60;;
15142;SDS011;7672;50.834;6.286;2023-06-22T00:27:23;9.02;;;8.15;;
15142;SDS011;7672;50.834;6.286;2023-06-22T00:29:50;9.13;;;8.23;;
15142;SDS011;7672;50.834;6.286;2023-06-22T00:32:18;8.10;;;7.47;;
15142;SDS011;7672;50.834;6.286;2023-06-22T00:34:46;9.10;;;7.53;;
15142;SDS011;7672;50.834;6.286;2023-06-22T00:37:14;9.27;;;8.27;;
15142;SDS011;7672;50.834;6.286;2023-06-22T00:39:41;8.50;;;7.75;;
15142;SDS011;7672;50.834;6.286;2023-06-22T00:42:12;10.32;;;8.18;;
15142;SDS011;7672;50.834;6.286;2023-06-22T00:44:39;9.23;;;8.32;;
15142;SDS011;7672;50.834;6.286;2023-06-22T00:47:07;9.07;;;8.27;;
15142;SDS011;7672;50.834;6.286;2023-06-22T00:49:34;8.60;;;7.70;;
15142;SDS011;7672;50.834;6.286;2023-06-22T00:52:01;9.25;;;8.25;;
15142;SDS011;7672;50.834;6.286;2023-06-22T00:54:28;8.43;;;7.63;;
15142;SDS011;7672;50.834;6.286;2023-06-22T00:56:56;8.80;;;8.10;;
15142;SDS011;7672;50.834;6.286;2023-06-22T00:59:24;11.65;;;8.77;;
15142;SDS011;7672;50.834;6.286;2023-06-22T01:01:53;8.80;;;7.72;;
15142;SDS011;7672;50.834;6.286;2023-06-22T01:04:24;9.38;;;8.40;;
15142;SDS011;7672;50.834;6.286;2023-06-22T01:07:24;9.23;;;8.32;;
15142;SDS011;7672;50.834;6.286;2023-06-22T01:12:55;8.07;;;7.32;;
15142;SDS011;7672;50.834;6.286;2023-06-22T01:15:32;9.25;;;8.38;;
15142;SDS011;7672;50.834;6.286;2023-06-22T01:18:11;8.55;;;7.75;;
15142;SDS011;7672;50.834;6.286;2023-06-22T01:20:43;8.90;;;8.20;;
15142;SDS011;7672;50.834;6.286;2023-06-22T01:23:33;9.00;;;8.10;;
15142;SDS011;7672;50.834;6.286;2023-06-22T01:29:40;8.95;;;8.05;;
15142;SDS011;7672;50.834;6.286;2023-06-22T01:32:10;8.73;;;7.47;;
15142;SDS011;7672;50.834;6.286;2023-06-22T01:34:38;8.68;;;7.90;;
15142;SDS011;7672;50.834;6.286;2023-06-22T01:37:06;8.77;;;7.97;;
15142;SDS011;7672;50.834;6.286;2023-06-22T01:39:34;9.27;;;8.40;;
15142;SDS011;7672;50.834;6.286;2023-06-22T01:42:03;9.60;;;7.72;;
15142;SDS011;7672;50.834;6.286;2023-06-22T01:44:31;8.85;;;8.07;;
15142;SDS011;7672;50.834;6.286;2023-06-22T01:46:59;9.38;;;8.38;;
15142;SDS011;7672;50.834;6.286;2023-06-22T01:49:28;8.73;;;7.78;;
15142;SDS011;7672;50.834;6.286;2023-06-22T01:51:56;11.20;;;9.32;;
15142;SDS011;7672;50.834;6.286;2023-06-22T01:54:23;9.30;;;8.32;;
15142;SDS011;7672;50.834;6.286;2023-06-22T01:56:50;9.02;;;7.97;;
15142;SDS011;7672;50.834;6.286;2023-06-22T01:59:20;8.52;;;7.53;;
15142;SDS011;7672;50.834;6.286;2023-06-22T02:01:52;9.77;;;8.18;;
15142;SDS011;7672;50.834;6.286;2023-06-22T02:04:50;9.75;;;8.30;;
15142;SDS011;7672;50.834;6.286;2023-06-22T02:07:23;9.45;;;8.55;;
15142;SDS011;7672;50.834;6.286;2023-06-22T02:10:01;11.13;;;8.15;;
15142;SDS011;7672;50.834;6.286;2023-06-22T02:12:31;8.73;;;7.85;;
15142;SDS011;7672;50.834;6.286;2023-06-22T02:15:01;8.93;;;8.18;;
15142;SDS011;7672;50.834;6.286;2023-06-22T02:17:29;11.40;;;8.85;;
15142;SDS011;7672;50.834;6.286;2023-06-22T02:20:01;9.82;;;8.75;;
15142;SDS011;7672;50.834;6.286;2023-06-22T02:22:34;9.98;;;8.98;;
15142;SDS011;7672;50.834;6.286;2023-06-22T02:25:02;9.55;;;8.50;;
15142;SDS011;7672;50.834;6.286;2023-06-22T02:27:29;9.10;;;8.15;;
15142;SDS011;7672;50.834;6.286;2023-06-22T02:29:57;10.07;;;8.60;;
15142;SDS011;7672;50.834;6.286;2023-06-22T02:32:24;9.57;;;8.65;;
15142;SDS011;7672;50.834;6.286;2023-06-22T02:34:52;8.88;;;8.02;;
15142;SDS011;7672;50.834;6.286;2023-06-22T02:37:22;9.27;;;8.25;;
15142;SDS011;7672;50.834;6.286;2023-06-22T02:39:51;11.23;;;9.88;;
15142;SDS011;7672;50.834;6.286;2023-06-22T02:42:19;9.00;;;8.10;;
15142;SDS011;7672;50.834;6.286;2023-06-22T02:44:48;10.20;;;8.75;;
15142;SDS011;7672;50.834;6.286;2023-06-22T02:47:15;14.35;;;9.23;;
15142;SDS011;7672;50.834;6.286;2023-06-22T02:49:42;9.50;;;8.57;;
15142;SDS011;7672;50.834;6.286;2023-06-22T02:52:11;9.02;;;8.23;;
15142;SDS011;7672;50.834;6.286;2023-06-22T02:54:38;10.65;;;9.70;;
15142;SDS011;7672;50.834;6.286;2023-06-22T02:57:06;9.10;;;8.30;;
15142;SDS011;7672;50.834;6.286;2023-06-22T02:59:33;10.75;;;9.02;;
15142;SDS011;7672;50.834;6.286;2023-06-22T03:02:07;8.88;;;8.07;;
15142;SDS011;7672;50.834;6.286;2023-06-22T03:04:35;10.57;;;9.27;;
15142;SDS011;7672;50.834;6.286;2023-06-22T03:07:02;9.18;;;8.27;;
15142;SDS011;7672;50.834;6.286;2023-06-22T03:09:32;9.70;;;8.80;;
15142;SDS011;7672;50.834;6.286;2023-06-22T03:11:59;10.23;;;8.85;;
15142;SDS011;7672;50.834;6.286;2023-06-22T03:14:36;10.68;;;8.90;;
15142;SDS011;7672;50.834;6.286;2023-06-22T03:17:04;9.80;;;8.95;;
15142;SDS011;7672;50.834;6.286;2023-06-22T03:19:32;11.80;;;8.40;;
15142;SDS011;7672;50.834;6.286;2023-06-22T03:21:59;9.70;;;8.80;;
15142;SDS011;7672;50.834;6.286;2023-06-22T03:24:27;9.52;;;8.45;;
15142;SDS011;7672;50.834;6.286;2023-06-22T03:26:57;10.82;;;8.57;;
15142;SDS011;7672;50.834;6.286;2023-06-22T03:29:24;10.40;;;7.82;;
15142;SDS011;7672;50.834;6.286;2023-06-22T03:31:55;8.85;;;7.70;;
15142;SDS011;7672;50.834;6.286;2023-06-22T03:34:22;10.27;;;7.22;;
15142;SDS011;7672;50.834;6.286;2023-06-22T03:36:51;10.55;;;8.88;;
15142;SDS011;7672;50.834;6.286;2023-06-22T03:39:18;11.27;;;8.82;;
15142;SDS011;7672;50.834;6.286;2023-06-22T03:41:46;14.82;;;8.52;;
15142;SDS011;7672;50.834;6.286;2023-06-22T03:44:14;13.27;;;8.70;;
15142;SDS011;7672;50.834;6.286;2023-06-22T03:46:42;9.60;;;8.32;;
15142;SDS011;7672;50.834;6.286;2023-06-22T03:49:09;11.65;;;8.45;;
15142;SDS011;7672;50.834;6.286;2023-06-22T03:51:36;11.20;;;7.85;;
15142;SDS011;7672;50.834;6.286;2023-06-22T03:54:03;7.82;;;7.13;;
15142;SDS011;7672;50.834;6.286;2023-06-22T03:56:30;8.70;;;7.53;;
15142;SDS011;7672;50.834;6.286;2023-06-22T03:58:58;14.05;;;7.72;;
15142;SDS011;7672;50.834;6.286;2023-06-22T04:01:25;10.13;;;7.60;;
15142;SDS011;7672;50.834;6.286;2023-06-22T04:03:52;10.07;;;7.32;;
15142;SDS011;7672;50.834;6.286;2023-06-22T04:06:19;12.75;;;7.80;;
15142;SDS011;7672;50.834;6.286;2023-06-22T04:08:46;12.60;;;7.40;;
15142;SDS011;7672;50.834;6.286;2023-06-22T04:11:17;9.85;;;7.57;;
15142;SDS011;7672;50.834;6.286;2023-06-22T04:13:45;10.90;;;8.00;;
15142;SDS011;7672;50.834;6.286;2023-06-22T04:16:12;9.85;;;7.15;;
15142;SDS011;7672;50.834;6.286;2023-06-22T04:18:39;11.93;;;7.45;;
15142;SDS011;7672;50.834;6.286;2023-06-22T04:21:06;9.70;;;6.93;;
15142;SDS011;7672;50.834;6.286;2023-06-22T04:23:33;13.00;;;7.85;;
15142;SDS011;7672;50.834;6.286;2023-06-22T04:26:00;13.35;;;7.18;;
15142;SDS011;7672;50.834;6.286;2023-06-22T04:28:27;9.45;;;8.18;;
15142;SDS011;7672;50.834;6.286;2023-06-22T04:30:54;12.45;;;8.18;;
15142;SDS011;7672;50.834;6.286;2023-06-22T04:33:24;10.40;;;7.82;;
15142;SDS011;7672;50.834;6.286;2023-06-22T04:35:51;9.48;;;6.85;;
15142;SDS011;7672;50.834;6.286;2023-06-22T04:38:18;12.63;;;7.22;;
15142;SDS011;7672;50.834;6.286;2023-06-22T04:40:47;9.88;;;7.25;;
15142;SDS011;7672;50.834;6.286;2023-06-22T04:43:15;8.50;;;6.88;;
15142;SDS011;7672;50.834;6.286;2023-06-22T04:45:42;15.40;;;7.45;;
15142;SDS011;7672;50.834;6.286;2023-06-22T04:48:09;12.95;;;7.85;;
15142;SDS011;7672;50.834;6.286;2023-06-22T04:50:42;11.93;;;7.10;;
15142;SDS011;7672;50.834;6.286;2023-06-22T04:53:10;12.88;;;7.72;;
15142;SDS011;7672;50.834;6.286;2023-06-22T04:55:39;10.68;;;7.43;;
15142;SDS011;7672;50.834;6.286;2023-06-22T04:58:08;14.90;;;7.53;;
15142;SDS011;7672;50.834;6.286;2023-06-22T05:00:35;15.25;;;8.48;;
15142;SDS011;7672;50.834;6.286;2023-06-22T05:03:05;9.60;;;7.00;;
15142;SDS011;7672;50.834;6.286;2023-06-22T05:05:45;9.07;;;7.63;;
15142;SDS011;7672;50.834;6.286;2023-06-22T05:08:13;10.48;;;8.02;;
15142;SDS011;7672;50.834;6.286;2023-06-22T05:10:40;10.10;;;7.65;;
15142;SDS011;7672;50.834;6.286;2023-06-22T05:13:27;11.95;;;7.60;;
15142;SDS011;7672;50.834;6.286;2023-06-22T05:15:54;11.45;;;7.90;;
15142;SDS011;7672;50.834;6.286;2023-06-22T05:18:28;11.98;;;7.97;;
15142;SDS011;7672;50.834;6.286;2023-06-22T05:20:57;11.95;;;8.35;;
15142;SDS011;7672;50.834;6.286;2023-06-22T05:23:24;12.30;;;8.23;;
15142;SDS011;7672;50.834;6.286;2023-06-22T05:25:51;10.38;;;8.02;;
15142;SDS011;7672;50.834;6.286;2023-06-22T05:28:19;14.90;;;9.25;;
15142;SDS011;7672;50.834;6.286;2023-06-22T05:30:49;11.18;;;7.65;;
15142;SDS011;7672;50.834;6.286;2023-06-22T05:33:16;9.00;;;7.97;;
15142;SDS011;7672;50.834;6.286;2023-06-22T05:35:43;9.20;;;7.88;;
15142;SDS011;7672;50.834;6.286;2023-06-22T05:38:10;15.13;;;8.80;;
15142;SDS011;7672;50.834;6.286;2023-06-22T05:40:37;14.65;;;8.90;;
15142;SDS011;7672;50.834;6.286;2023-06-22T05:43:04;12.82;;;9.57;;
15142;SDS011;7672;50.834;6.286;2023-06-22T05:45:31;10.50;;;8.25;;
15142;SDS011;7672;50.834;6.286;2023-06-22T05:47:58;11.90;;;8.93;;
15142;SDS011;7672;50.834;6.286;2023-06-22T05:50:26;13.23;;;8.75;;
15142;SDS011;7672;50.834;6.286;2023-06-22T05:52:53;11.73;;;8.57;;
15142;SDS011;7672;50.834;6.286;2023-06-22T05:55:20;11.60;;;9.20;;
15142;SDS011;7672;50.834;6.286;2023-06-22T05:57:47;13.70;;;8.88;;
15142;SDS011;7672;50.834;6.286;2023-06-22T06:00:14;11.57;;;9.20;;
15142;SDS011;7672;50.834;6.286;2023-06-22T06:02:42;13.27;;;9.55;;
15142;SDS011;7672;50.834;6.286;2023-06-22T06:05:11;14.25;;;9.32;;
15142;SDS011;7672;50.834;6.286;2023-06-22T06:07:40;13.35;;;9.85;;
15142;SDS011;7672;50.834;6.286;2023-06-22T06:10:09;13.38;;;9.43;;
15142;SDS011;7672;50.834;6.286;2023-06-22T06:12:37;13.43;;;10.20;;
15142;SDS011;7672;50.834;6.286;2023-06-22T06:15:04;11.82;;;9.57;;
15142;SDS011;7672;50.834;6.286;2023-06-22T06:17:35;10.45;;;9.20;;
15142;SDS011;7672;50.834;6.286;2023-06-22T06:20:11;11.20;;;10.05;;
15142;SDS011;7672;50.834;6.286;2023-06-22T06:22:39;11.98;;;9.63;;
15142;SDS011;7672;50.834;6.286;2023-06-22T06:25:06;17.08;;;9.23;;
15142;SDS011;7672;50.834;6.286;2023-06-22T06:27:33;13.40;;;9.57;;
15142;SDS011;7672;50.834;6.286;2023-06-22T06:30:00;16.50;;;9.82;;
15142;SDS011;7672;50.834;6.286;2023-06-22T06:32:28;13.88;;;10.10;;
15142;SDS011;7672;50.834;6.286;2023-06-22T06:34:55;14.98;;;9.90;;
15142;SDS011;7672;50.834;6.286;2023-06-22T06:37:22;11.68;;;9.57;;
15142;SDS011;7672;50.834;6.286;2023-06-22T06:39:49;17.95;;;9.90;;
15142;SDS011;7672;50.834;6.286;2023-06-22T06:42:16;13.25;;;9.85;;
15142;SDS011;7672;50.834;6.286;2023-06-22T06:44:45;15.38;;;10.18;;
15142;SDS011;7672;50.834;6.286;2023-06-22T06:47:12;13.35;;;10.25;;
15142;SDS011;7672;50.834;6.286;2023-06-22T06:49:39;11.65;;;9.70;;
15142;SDS011;7672;50.834;6.286;2023-06-22T06:52:06;13.40;;;10.77;;
15142;SDS011;7672;50.834;6.286;2023-06-22T06:54:33;11.35;;;10.32;;
15142;SDS011;7672;50.834;6.286;2023-06-22T06:57:00;11.00;;;9.75;;
15142;SDS011;7672;50.834;6.286;2023-06-22T06:59:29;14.07;;;10.05;;
15142;SDS011;7672;50.834;6.286;2023-06-22T07:01:56;11.88;;;10.57;;
15142;SDS011;7672;50.834;6.286;2023-06-22T07:04:23;13.25;;;10.60;;
15142;SDS011;7672;50.834;6.286;2023-06-22T07:06:51;11.52;;;10.40;;
15142;SDS011;7672;50.834;6.286;2023-06-22T07:09:18;10.88;;;9.77;;
15142;SDS011;7672;50.834;6.286;2023-06-22T07:11:45;12.07;;;10.80;;
15142;SDS011;7672;50.834;6.286;2023-06-22T07:14:12;12.65;;;10.20;;
15142;SDS011;7672;50.834;6.286;2023-06-22T07:16:39;14.05;;;10.27;;
15142;SDS011;7672;50.834;6.286;2023-06-22T07:19:07;13.43;;;11.00;;
15142;SDS011;7672;50.834;6.286;2023-06-22T07:21:35;12.45;;;10.77;;
15142;SDS011;7672;50.834;6.286;2023-06-22T07:24:04;14.40;;;10.80;;
15142;SDS011;7672;50.834;6.286;2023-06-22T07:26:32;12.27;;;11.00;;
15142;SDS011;7672;50.834;6.286;2023-06-22T07:29:00;12.93;;;11.45;;
15142;SDS011;7672;50.834;6.286;2023-06-22T07:31:27;13.98;;;12.25;;
15142;SDS011;7672;50.834;6.286;2023-06-22T07:33:54;16.27;;;11.93;;
15142;SDS011;7672;50.834;6.286;2023-06-22T07:36:21;11.93;;;10.82;;
15142;SDS011;7672;50.834;6.286;2023-06-22T07:38:48;13.52;;;11.30;;
15142;SDS011;7672;50.834;6.286;2023-06-22T07:41:15;18.13;;;10.88;;
15142;SDS011;7672;50.834;6.286;2023-06-22T07:43:43;14.88;;;11.38;;
15142;SDS011;7672;50.834;6.286;2023-06-22T07:46:10;15.02;;;11.13;;
15142;SDS011;7672;50.834;6.286;2023-06-22T07:48:37;14.98;;;11.80;;
15142;SDS011;7672;50.834;6.286;2023-06-22T07:51:04;13.20;;;11.95;;
15142;SDS011;7672;50.834;6.286;2023-06-22T07:53:32;12.15;;;10.82;;
15142;SDS011;7672;50.834;6.286;2023-06-22T07:55:59;15.65;;;12.35;;
15142;SDS011;7672;50.834;6.286;2023-06-22T07:58:27;13.77;;;11.52;;
15142;SDS011;7672;50.834;6.286;2023-06-22T08:00:54;18.45;;;12.10;;
15142;SDS011;7672;50.834;6.286;2023-06-22T08:03:21;14.23;;;11.75;;
15142;SDS011;7672;50.834;6.286;2023-06-22T08:05:48;13.88;;;10.95;;
15142;SDS011;7672;50.834;6.286;2023-06-22T08:08:16;18.17;;;11.88;;
15142;SDS011;7672;50.834;6.286;2023-06-22T08:10:43;17.27;;;11.15;;
15142;SDS011;7672;50.834;6.286;2023-06-22T08:13:10;15.00;;;11.95;;
15142;SDS011;7672;50.834;6.286;2023-06-22T08:15:37;17.20;;;10.45;;
15142;SDS011;7672;50.834;6.286;2023-06-22T08:18:04;16.00;;;10.85;;
15142;SDS011;7672;50.834;6.286;2023-06-22T08:20:31;14.75;;;11.20;;
15142;SDS011;7672;50.834;6.286;2023-06-22T08:22:58;12.98;;;11.77;;
15142;SDS011;7672;50.834;6.286;2023-06-22T08:25:33;14.20;;;12.73;;
15142;SDS011;7672;50.834;6.286;2023-06-22T08:28:01;14.02;;;12.85;;
15142;SDS011;7672;50.834;6.286;2023-06-22T08:30:30;14.90;;;12.85;;
15142;SDS011;7672;50.834;6.286;2023-06-22T08:32:57;13.63;;;12.32;;
15142;SDS011;7672;50.834;6.286;2023-06-22T08:35:24;14.20;;;12.98;;
15142;SDS011;7672;50.834;6.286;2023-06-22T08:37:52;14.68;;;13.45;;
15142;SDS011;7672;50.834;6.286;2023-06-22T08:40:20;14.40;;;12.93;;
15142;SDS011;7672;50.834;6.286;2023-06-22T08:42:48;14.40;;;13.00;;
15142;SDS011;7672;50.834;6.286;2023-06-22T08:45:15;14.85;;;12.35;;
15142;SDS011;7672;50.834;6.286;2023-06-22T08:47:43;15.15;;;12.18;;
15142;SDS011;7672;50.834;6.286;2023-06-22T08:50:11;15.07;;;12.43;;
15142;SDS011;7672;50.834;6.286;2023-06-22T08:52:39;15.23;;;13.27;;
15142;SDS011;7672;50.834;6.286;2023-06-22T08:55:10;12.85;;;11.63;;
15142;SDS011;7672;50.834;6.286;2023-06-22T08:57:37;15.00;;;11.38;;
15142;SDS011;7672;50.834;6.286;2023-06-22T09:00:06;12.55;;;11.45;;
15142;SDS011;7672;50.834;6.286;2023-06-22T09:02:46;17.73;;;13.15;;
15142;SDS011;7672;50.834;6.286;2023-06-22T09:05:14;14.40;;;12.25;;
15142;SDS011;7672;50.834;6.286;2023-06-22T09:07:42;13.02;;;11.65;;
15142;SDS011;7672;50.834;6.286;2023-06-22T09:10:10;12.90;;;11.57;;
15142;SDS011;7672;50.834;6.286;2023-06-22T09:12:37;14.23;;;12.73;;
15142;SDS011;7672;50.834;6.286;2023-06-22T09:15:05;11.65;;;10.52;;
15142;SDS011;7672;50.834;6.286;2023-06-22T09:17:40;13.18;;;11.80;;
15142;SDS011;7672;50.834;6.286;2023-06-22T09:20:07;12.40;;;11.18;;
15142;SDS011;7672;50.834;6.286;2023-06-22T09:22:37;13.82;;;11.30;;
15142;SDS011;7672;50.834;6.286;2023-06-22T09:25:04;17.05;;;12.10;;
15142;SDS011;7672;50.834;6.286;2023-06-22T09:27:33;13.73;;;12.30;;
15142;SDS011;7672;50.834;6.286;2023-06-22T09:30:00;13.07;;;11.85;;
15142;SDS011;7672;50.834;6.286;2023-06-22T09:32:27;14.77;;;13.38;;
15142;SDS011;7672;50.834;6.286;2023-06-22T09:34:54;15.55;;;14.25;;
15142;SDS011;7672;50.834;6.286;2023-06-22T09:37:21;14.93;;;13.65;;
15142;SDS011;7672;50.834;6.286;2023-06-22T09:39:48;16.50;;;14.90;;
15142;SDS011;7672;50.834;6.286;2023-06-22T09:42:15;17.77;;;15.38;;
15142;SDS011;7672;50.834;6.286;2023-06-22T09:44:42;16.67;;;14.30;;
15142;SDS011;7672;50.834;6.286;2023-06-22T09:47:09;16.92;;;15.05;;
15142;SDS011;7672;50.834;6.286;2023-06-22T09:49:37;14.68;;;13.32;;
15142;SDS011;7672;50.834;6.286;2023-06-22T09:52:14;15.00;;;13.68;;
15142;SDS011;7672;50.834;6.286;2023-06-22T09:54:42;14.98;;;13.60;;
15142;SDS011;7672;50.834;6.286;2023-06-22T09:57:09;16.98;;;14.00;;
15142;SDS011;7672;50.834;6.286;2023-06-22T09:59:36;16.48;;;14.95;;
15142;SDS011;7672;50.834;6.286;2023-06-22T10:02:06;17.80;;;16.02;;
15142;SDS011;7672;50.834;6.286;2023-06-22T10:04:34;18.60;;;16.67;;
15142;SDS011;7672;50.834;6.286;2023-06-22T10:07:09;20.20;;;18.15;;
15142;SDS011;7672;50.834;6.286;2023-06-22T10:09:53;20.70;;;18.65;;
15142;SDS011;7672;50.834;6.286;2023-06-22T10:13:02;21.70;;;19.63;;
15142;SDS011;7672;50.834;6.286;2023-06-22T10:15:36;21.20;;;18.45;;
15142;SDS011;7672;50.834;6.286;2023-06-22T10:18:04;22.08;;;19.83;;
15142;SDS011;7672;50.834;6.286;2023-06-22T10:20:31;22.05;;;19.77;;
15142;SDS011;7672;50.834;6.286;2023-06-22T10:22:58;22.75;;;20.42;;
15142;SDS011;7672;50.834;6.286;2023-06-22T10:25:26;22.58;;;20.25;;
15142;SDS011;7672;50.834;6.286;2023-06-22T10:27:54;24.10;;;21.60;;
15142;SDS011;7672;50.834;6.286;2023-06-22T10:30:21;25.58;;;22.92;;
15142;SDS011;7672;50.834;6.286;2023-06-22T10:32:48;23.05;;;20.73;;
15142;SDS011;7672;50.834;6.286;2023-06-22T10:35:15;25.35;;;21.77;;
15142;SDS011;7672;50.834;6.286;2023-06-22T10:37:43;23.60;;;21.30;;
15142;SDS011;7672;50.834;6.286;2023-06-22T10:40:12;23.08;;;20.65;;
15142;SDS011;7672;50.834;6.286;2023-06-22T10:42:41;23.60;;;21.27;;
15142;SDS011;7672;50.834;6.286;2023-06-22T10:45:09;23.60;;;21.23;;
15142;SDS011;7672;50.834;6.286;2023-06-22T10:47:37;24.67;;;22.17;;
15142;SDS011;7672;50.834;6.286;2023-06-22T10:50:04;22.40;;;20.02;;
15142;SDS011;7672;50.834;6.286;2023-06-22T10:52:32;23.10;;;20.67;;
15142;SDS011;7672;50.834;6.286;2023-06-22T10:54:59;24.15;;;21.75;;
15142;SDS011;7672;50.834;6.286;2023-06-22T10:57:27;21.90;;;19.63;;
15142;SDS011;7672;50.834;6.286;2023-06-22T10:59:57;22.52;;;20.20;;
15142;SDS011;7672;50.834;6.286;2023-06-22T11:02:30;20.90;;;18.90;;
15142;SDS011;7672;50.834;6.286;2023-06-22T11:04:58;21.23;;;18.90;;
15142;SDS011;7672;50.834;6.286;2023-06-22T11:07:27;21.63;;;19.38;;
15142;SDS011;7672;50.834;6.286;2023-06-22T11:09:56;21.88;;;19.55;;
15142;SDS011;7672;50.834;6.286;2023-06-22T11:12:23;22.52;;;20.20;;
15142;SDS011;7672;50.834;6.286;2023-06-22T11:14:50;22.35;;;20.17;;
15142;SDS011;7672;50.834;6.286;2023-06-22T11:17:20;23.17;;;20.98;;
15142;SDS011;7672;50.834;6.286;2023-06-22T11:19:47;25.63;;;23.00;;
15142;SDS011;7672;50.834;6.286;2023-06-22T11:22:15;24.70;;;22.15;;
15142;SDS011;7672;50.834;6.286;2023-06-22T11:24:43;23.70;;;21.67;;
15142;SDS011;7672;50.834;6.286;2023-06-22T11:27:10;23.77;;;21.77;;
15142;SDS011;7672;50.834;6.286;2023-06-22T11:29:37;25.58;;;23.42;;
15142;SDS011;7672;50.834;6.286;2023-06-22T11:32:06;23.77;;;21.70;;
15142;SDS011;7672;50.834;6.286;2023-06-22T11:34:35;25.00;;;22.67;;
15142;SDS011;7672;50.834;6.286;2023-06-22T11:37:02;25.42;;;23.40;;
15142;SDS011;7672;50.834;6.286;2023-06-22T11:39:29;24.35;;;22.00;;
15142;SDS011;7672;50.834;6.286;2023-06-22T11:42:08;24.10;;;21.92;;
15142;SDS011;7672;50.834;6.286;2023-06-22T11:44:37;23.02;;;21.08;;
15142;SDS011;7672;50.834;6.286;2023-06-22T11:47:04;22.60;;;20.80;;
15142;SDS011;7672;50.834;6.286;2023-06-22T11:49:32;22.45;;;20.38;;
15142;SDS011;7672;50.834;6.286;2023-06-22T11:51:59;20.95;;;19.27;;
15142;SDS011;7672;50.834;6.286;2023-06-22T11:54:26;21.80;;;19.90;;
15142;SDS011;7672;50.834;6.286;2023-06-22T11:56:53;22.08;;;20.23;;
15142;SDS011;7672;50.834;6.286;2023-06-22T11:59:24;21.83;;;20.00;;
15142;SDS011;7672;50.834;6.286;2023-06-22T12:01:52;22.27;;;20.38;;
15142;SDS011;7672;50.834;6.286;2023-06-22T12:04:19;23.42;;;21.48;;
15142;SDS011;7672;50.834;6.286;2023-06-22T12:06:47;22.60;;;20.70;;
15142;SDS011;7672;50.834;6.286;2023-06-22T12:09:18;21.85;;;20.05;;
15142;SDS011;7672;50.834;6.286;2023-06-22T12:11:45;21.33;;;19.52;;
15142;SDS011;7672;50.834;6.286;2023-06-22T12:14:13;20.30;;;18.65;;
15142;SDS011;7672;50.834;6.286;2023-06-22T12:16:40;19.90;;;18.27;;
15142;SDS011;7672;50.834;6.286;2023-06-22T12:19:07;20.70;;;18.92;;
15142;SDS011;7672;50.834;6.286;2023-06-22T12:21:58;21.08;;;19.27;;
15142;SDS011;7672;50.834;6.286;2023-06-22T12:24:32;19.40;;;17.77;;
15142;SDS011;7672;50.834;6.286;2023-06-22T12:27:00;18.95;;;17.27;;
15142;SDS011;7672;50.834;6.286;2023-06-22T12:29:29;19.63;;;17.92;;
15142;SDS011;7672;50.834;6.286;2023-06-22T12:31:56;20.08;;;18.27;;
15142;SDS011;7672;50.834;6.286;2023-06-22T12:34:23;20.23;;;18.45;;
15142;SDS011;7672;50.834;6.286;2023-06-22T12:36:51;18.15;;;16.70;;
15142;SDS011;7672;50.834;6.286;2023-06-22T12:39:20;16.60;;;15.10;;
15142;SDS011;7672;50.834;6.286;2023-06-22T12:41:48;18.88;;;16.65;;
15142;SDS011;7672;50.834;6.286;2023-06-22T12:44:15;19.27;;;17.27;;
15142;SDS011;7672;50.834;6.286;2023-06-22T12:46:45;19.42;;;17.70;;
15142;SDS011;7672;50.834;6.286;2023-06-22T12:49:13;18.23;;;16.48;;
15142;SDS011;7672;50.834;6.286;2023-06-22T12:51:41;18.02;;;16.48;;
15142;SDS011;7672;50.834;6.286;2023-06-22T12:54:09;17.48;;;15.88;;
15142;SDS011;7672;50.834;6.286;2023-06-22T12:56:38;20.13;;;18.15;;
15142;SDS011;7672;50.834;6.286;2023-06-22T12:59:05;22.08;;;20.10;;
15142;SDS011;7672;50.834;6.286;2023-06-22T13:01:33;22.00;;;19.67;;
15142;SDS011;7672;50.834;6.286;2023-06-22T13:04:00;21.67;;;19.77;;
15142;SDS011;7672;50.834;6.286;2023-06-22T13:06:27;21.75;;;19.88;;
15142;SDS011;7672;50.834;6.286;2023-06-22T13:08:54;20.83;;;19.17;;
15142;SDS011;7672;50.834;6.286;2023-06-22T13:11:44;21.13;;;19.50;;
15142;SDS011;7672;50.834;6.286;2023-06-22T13:14:12;21.90;;;20.00;;
15142;SDS011;7672;50.834;6.286;2023-06-22T13:16:39;22.60;;;20.58;;
15142;SDS011;7672;50.834;6.286;2023-06-22T13:19:06;24.33;;;21.95;;
15142;SDS011;7672;50.834;6.286;2023-06-22T13:21:35;22.77;;;20.98;;
15142;SDS011;7672;50.834;6.286;2023-06-22T13:24:02;24.77;;;22.55;;
15142;SDS011;7672;50.834;6.286;2023-06-22T13:26:32;23.45;;;21.35;;
15142;SDS011;7672;50.834;6.286;2023-06-22T13:29:00;23.88;;;21.77;;
15142;SDS011;7672;50.834;6.286;2023-06-22T13:31:27;25.17;;;22.98;;
15142;SDS011;7672;50.834;6.286;2023-06-22T13:33:54;24.92;;;22.60;;
15142;SDS011;7672;50.834;6.286;2023-06-22T13:36:22;25.48;;;23.27;;
15142;SDS011;7672;50.834;6.286;2023-06-22T13:38:49;24.90;;;22.80;;
15142;SDS011;7672;50.834;6.286;2023-06-22T13:41:18;25.33;;;23.23;;
15142;SDS011;7672;50.834;6.286;2023-06-22T13:43:45;26.25;;;23.85;;
15142;SDS011;7672;50.834;6.286;2023-06-22T13:46:12;26.40;;;24.02;;
15142;SDS011;7672;50.834;6.286;2023-06-22T13:48:39;25.67;;;23.25;;
15142;SDS011;7672;50.834;6.286;2023-06-22T13:51:06;27.27;;;24.98;;
15142;SDS011;7672;50.834;6.286;2023-06-22T13:53:34;28.27;;;25.55;;
15142;SDS011;7672;50.834;6.286;2023-06-22T13:56:01;27.58;;;25.15;;
15142;SDS011;7672;50.834;6.286;2023-06-22T13:58:28;28.30;;;25.80;;
15142;SDS011;7672;50.834;6.286;2023-06-22T14:00:56;29.42;;;26.95;;
15142;SDS011;7672;50.834;6.286;2023-06-22T14:03:23;28.73;;;26.08;;
15142;SDS011;7672;50.834;6.286;2023-06-22T14:05:50;29.52;;;27.05;;
15142;SDS011;7672;50.834;6.286;2023-06-22T14:08:20;30.67;;;27.98;;
15142;SDS011;7672;50.834;6.286;2023-06-22T14:10:52;31.35;;;28.60;;
15142;SDS011;7672;50.834;6.286;2023-06-22T14:13:21;32.05;;;29.33;;
15142;SDS011;7672;50.834;6.286;2023-06-22T14:15:48;30.50;;;28.00;;
15142;SDS011;7672;50.834;6.286;2023-06-22T14:18:20;29.45;;;26.98;;
15142;SDS011;7672;50.834;6.286;2023-06-22T14:20:49;29.50;;;26.70;;
15142;SDS011;7672;50.834;6.286;2023-06-22T14:23:16;30.27;;;27.48;;
15142;SDS011;7672;50.834;6.286;2023-06-22T14:25:43;30.10;;;27.00;;
15142;SDS011;7672;50.834;6.286;2023-06-22T14:28:10;29.17;;;26.60;;
15142;SDS011;7672;50.834;6.286;2023-06-22T14:30:38;28.75;;;26.20;;
15142;SDS011;7672;50.834;6.286;2023-06-22T14:33:05;29.90;;;26.88;;
15142;SDS011;7672;50.834;6.286;2023-06-22T14:35:32;28.77;;;26.05;;
15142;SDS011;7672;50.834;6.286;2023-06-22T14:37:59;30.27;;;27.58;;
15142;SDS011;7672;50.834;6.286;2023-06-22T14:40:27;30.52;;;27.52;;
15142;SDS011;7672;50.834;6.286;2023-06-22T14:42:55;31.55;;;28.90;;
15142;SDS011;7672;50.834;6.286;2023-06-22T14:45:23;33.13;;;30.05;;
15142;SDS011;7672;50.834;6.286;2023-06-22T14:47:50;32.40;;;29.52;;
15142;SDS011;7672;50.834;6.286;2023-06-22T14:50:17;33.35;;;30.35;;
15142;SDS011;7672;50.834;6.286;2023-06-22T14:52:44;35.38;;;32.17;;
15142;SDS011;7672;50.834;6.286;2023-06-22T14:55:12;35.05;;;31.70;;
15142;SDS011;7672;50.834;6.286;2023-06-22T14:57:39;35.72;;;32.40;;